createdAt,value
2018-11-26T00:01:45.858Z,15.1
2018-11-26T00:07:40.858Z,12.95
2018-11-26T00:13:35.863Z,11.79
2018-11-26T00:19:30.868Z,16.59
2018-11-26T00:25:25.886Z,12.13
2018-11-26T00:31:20.866Z,15.42
2018-11-26T00:37:15.885Z,17.55
2018-11-26T00:43:10.934Z,16.11
2018-11-26T00:49:05.881Z,26.14
2018-11-26T00:55:00.911Z,28.9
2018-11-26T01:00:55.891Z,28.09
2018-11-26T01:06:50.909Z,22.81
2018-11-26T01:12:45.902Z,17.05
2018-11-26T01:18:40.930Z,11.95
2018-11-26T01:24:35.958Z,7.03
2018-11-26T01:30:30.986Z,5.42
2018-11-26T01:36:25.920Z,3.54
2018-11-26T01:42:20.993Z,3.39
2018-11-26T01:48:15.952Z,3.6
2018-11-26T01:54:10.920Z,1.93
2018-11-26T02:00:05.939Z,2.58
2018-11-26T02:06:00.969Z,1.81
2018-11-26T02:11:55.981Z,3
2018-11-26T02:17:50.976Z,2.9
2018-11-26T02:23:45.978Z,1.49
2018-11-26T02:29:41.015Z,2.66
2018-11-26T02:35:35.996Z,1.46
2018-11-26T02:41:31.026Z,1.83
2018-11-26T02:47:26.020Z,3.76
2018-11-26T02:53:21.033Z,3.37
2018-11-26T02:59:16.091Z,4
2018-11-26T03:05:11.006Z,2.46
2018-11-26T03:11:06.020Z,3.17
2018-11-26T03:17:01.029Z,2.03
2018-11-26T03:22:56.044Z,3.53
2018-11-26T03:28:51.037Z,2.49
2018-11-26T03:34:46.071Z,1.72
2018-11-26T03:40:41.116Z,2.7
2018-11-26T03:46:36.037Z,1.53
2018-11-26T03:52:31.038Z,1.51
2018-11-26T03:58:26.065Z,2.09
2018-11-26T04:04:21.105Z,1.58
2018-11-26T04:10:16.075Z,2.24
2018-11-26T04:16:11.057Z,3.48
2018-11-26T04:22:06.090Z,5.3
2018-11-26T04:28:01.110Z,1.73
2018-11-26T04:33:56.079Z,2.16
2018-11-26T04:39:51.114Z,2.02
2018-11-26T04:45:46.081Z,2.68
2018-11-26T04:51:41.097Z,3.71
2018-11-26T04:57:41.884Z,3.71
2018-11-26T05:03:31.102Z,3.16
2018-11-26T05:09:26.114Z,3.9
2018-11-26T05:15:21.135Z,1.82
2018-11-26T05:21:16.109Z,3.56
2018-11-26T05:27:11.150Z,1.67
2018-11-26T05:33:06.127Z,5.5
2018-11-26T05:39:01.150Z,2.01
2018-11-26T05:44:56.160Z,3.23
2018-11-26T05:50:51.186Z,2.05
2018-11-26T05:56:46.153Z,1.33
2018-11-26T06:02:41.204Z,1.5
2018-11-26T06:08:36.171Z,2.47
2018-11-26T06:14:31.218Z,3.42
2018-11-26T06:20:26.176Z,2.16
2018-11-26T06:26:21.199Z,1.74
2018-11-26T06:32:16.178Z,2.03
2018-11-26T06:38:11.235Z,6.38
2018-11-26T06:44:06.202Z,5.4
2018-11-26T06:50:01.198Z,3.14
2018-11-26T06:55:56.221Z,1.94
2018-11-26T07:01:51.673Z,1.72
2018-11-26T07:07:46.227Z,2.16
2018-11-26T07:13:41.221Z,2.49
2018-11-26T07:19:36.242Z,4.88
2018-11-26T07:25:31.216Z,2.05
2018-11-26T07:31:26.264Z,2.62
2018-11-26T07:37:21.245Z,4.17
2018-11-26T07:43:16.249Z,3.19
2018-11-26T07:49:11.251Z,3.27
2018-11-26T07:55:06.286Z,2.31
2018-11-26T08:01:01.252Z,4.18
2018-11-26T08:06:56.276Z,2.62
2018-11-26T08:12:51.276Z,3.9
2018-11-26T08:18:46.288Z,4.63
2018-11-26T08:24:41.280Z,2.72
2018-11-26T08:30:36.283Z,7.41
2018-11-26T08:36:31.298Z,3.71
2018-11-26T08:42:26.336Z,4.46
2018-11-26T08:48:21.297Z,3.48
2018-11-26T08:54:16.319Z,7.01
2018-11-26T09:00:11.368Z,7.14
2018-11-26T09:06:06.306Z,5.03
2018-11-26T09:12:01.301Z,7.36
2018-11-26T09:17:56.305Z,6.13
2018-11-26T09:23:51.313Z,7.64
2018-11-26T09:29:46.331Z,5.43
2018-11-26T09:35:41.352Z,6.84
2018-11-26T09:41:36.325Z,4.72
2018-11-26T09:47:31.352Z,4.14
2018-11-26T09:53:26.425Z,6.01
2018-11-26T09:59:21.379Z,7.46
2018-11-26T10:05:16.373Z,13.02
2018-11-26T10:11:11.385Z,7.45
2018-11-26T10:17:06.402Z,5.31
2018-11-26T10:23:01.434Z,11.3
2018-11-26T10:28:56.436Z,4.46
2018-11-26T10:34:51.424Z,4.75
2018-11-26T10:40:46.406Z,3.19
2018-11-26T10:46:41.403Z,3.62
2018-11-26T10:52:36.479Z,6.45
2018-11-26T10:58:31.447Z,7.06
2018-11-26T11:04:26.426Z,8.52
2018-11-26T11:10:21.417Z,6.11
2018-11-26T11:16:16.444Z,5.08
2018-11-26T11:22:11.479Z,7.21
2018-11-26T11:28:06.432Z,5.73
2018-11-26T11:34:01.503Z,5.97
2018-11-26T11:39:56.473Z,3.91
2018-11-26T11:45:51.529Z,2.41
2018-11-26T11:51:46.499Z,5.73
2018-11-26T11:57:41.484Z,6.39
2018-11-26T12:03:36.508Z,7.67
2018-11-26T12:09:31.520Z,4.97
2018-11-26T12:15:26.557Z,5.33
2018-11-26T12:21:21.488Z,4.55
2018-11-26T12:33:11.528Z,5.31
2018-11-26T12:39:06.532Z,7.43
2018-11-26T12:45:01.534Z,5.17
2018-11-26T12:50:56.705Z,4.07
2018-11-26T12:56:51.558Z,2.85
2018-11-26T13:02:46.517Z,4.87
2018-11-26T13:08:41.564Z,4.95
2018-11-26T13:14:36.548Z,3.86
2018-11-26T13:20:31.560Z,6.26
2018-11-26T13:26:26.572Z,7.82
2018-11-26T13:32:21.544Z,4.43
2018-11-26T13:38:16.605Z,4.86
2018-11-26T13:44:11.577Z,8.18
2018-11-26T13:50:06.569Z,4.19
2018-11-26T13:56:01.563Z,4.8
2018-11-26T14:01:56.566Z,3.37
2018-11-26T14:07:51.551Z,3.8
2018-11-26T14:13:46.596Z,4.2
2018-11-26T14:19:41.583Z,4.51
2018-11-26T14:25:36.590Z,11.12
2018-11-26T14:31:31.587Z,5.9
2018-11-26T14:37:26.590Z,6.44
2018-11-26T14:43:21.611Z,5.95
2018-11-26T14:49:16.633Z,4.62
2018-11-26T14:55:11.605Z,3.7
2018-11-26T15:01:06.628Z,5.2
2018-11-26T15:07:01.651Z,7.7
2018-11-26T15:12:56.635Z,3.56
2018-11-26T15:18:52.005Z,5.93
2018-11-26T15:24:46.669Z,17.1
2018-11-26T15:30:41.656Z,7.04
2018-11-26T15:36:36.667Z,11.5
2018-11-26T15:42:31.656Z,5.96
2018-11-26T15:48:26.655Z,9.64
2018-11-26T15:54:21.685Z,10.13
2018-11-26T16:00:16.668Z,14.53
2018-11-26T16:06:11.713Z,8.88
2018-11-26T16:12:11.227Z,7.91
2018-11-26T16:18:01.676Z,12.37
2018-11-26T16:23:56.713Z,15.06
2018-11-26T16:29:51.764Z,11.03
2018-11-26T16:35:46.698Z,8.63
2018-11-26T16:41:41.699Z,8.94
2018-11-26T16:47:36.711Z,12.2
2018-11-26T16:53:31.713Z,12.84
2018-11-26T16:59:26.714Z,11.73
2018-11-26T17:05:22.416Z,6.54
2018-11-26T17:11:16.756Z,8.91
2018-11-26T17:17:11.723Z,11.23
2018-11-26T17:23:06.765Z,15.13
2018-11-26T17:29:01.791Z,17.32
2018-11-26T17:34:56.746Z,14.86
2018-11-26T17:40:51.830Z,11.1
2018-11-26T17:46:46.776Z,15.22
2018-11-26T17:52:41.759Z,14.05
2018-11-26T17:58:36.798Z,11.53
2018-11-26T18:04:31.814Z,14.12
2018-11-26T18:10:26.815Z,13.99
2018-11-26T18:16:21.784Z,11.57
2018-11-26T18:22:16.821Z,12.7
2018-11-26T18:28:11.906Z,20.09
2018-11-26T18:34:06.805Z,17.7
2018-11-26T18:40:01.800Z,14.17
2018-11-26T18:45:56.858Z,27.3
2018-11-26T18:51:51.817Z,18.03
2018-11-26T18:57:46.837Z,21.66
2018-11-26T19:03:41.828Z,19.44
2018-11-26T19:09:36.855Z,15.09
2018-11-26T19:15:31.898Z,14.98
2018-11-26T19:21:27.638Z,15.14
2018-11-26T19:27:21.830Z,26.71
2018-11-26T19:33:16.872Z,17.99
2018-11-26T19:39:11.858Z,15.29
2018-11-26T19:45:06.971Z,18.37
2018-11-26T19:51:01.968Z,18.45
2018-11-26T19:56:56.874Z,17.46
2018-11-26T20:02:51.876Z,13.05
2018-11-26T20:08:46.908Z,17.86
2018-11-26T20:14:41.883Z,17.06
2018-11-26T20:20:36.873Z,15.68
2018-11-26T20:26:31.952Z,15.39
2018-11-26T20:32:30.179Z,45.68
2018-11-26T20:38:21.926Z,26.09
2018-11-26T20:44:16.928Z,18.75
2018-11-26T20:50:11.927Z,16.78
2018-11-26T20:56:06.915Z,13.67
2018-11-26T21:02:01.936Z,17.42
2018-11-26T21:07:56.932Z,13.29
2018-11-26T21:13:51.923Z,11.71
2018-11-26T21:19:49.671Z,13.64
2018-11-26T21:25:41.951Z,18.35
2018-11-26T21:31:36.953Z,9.34
2018-11-26T21:37:31.965Z,13.06
2018-11-26T21:43:26.949Z,16.34
2018-11-26T21:49:21.977Z,12.6
2018-11-26T21:55:16.999Z,12.86
2018-11-26T22:01:11.992Z,11.07
2018-11-26T22:07:06.978Z,12.64
2018-11-26T22:13:01.968Z,17.97
2018-11-26T22:18:56.972Z,9.42
2018-11-26T22:24:52.033Z,15
2018-11-26T22:30:46.983Z,8.4
2018-11-26T22:36:42.006Z,9.2
2018-11-26T22:42:37.007Z,5.85
2018-11-26T22:48:32.012Z,11.89
2018-11-26T22:54:27.000Z,8.9
2018-11-26T23:00:22.021Z,9.06
2018-11-26T23:06:17.003Z,10.75
2018-11-26T23:12:12.061Z,9.55
2018-11-26T23:18:07.038Z,7.29
2018-11-26T23:24:02.053Z,9.02
2018-11-26T23:29:57.067Z,7.78
2018-11-26T23:35:52.057Z,6.23
2018-11-26T23:41:47.053Z,4.33
2018-11-26T23:47:42.079Z,6.65
2018-11-26T23:53:37.094Z,6.66
2018-11-26T23:59:32.110Z,7.47
